sensor_id;sensor_type;location;lat;lon;timestamp;P1;durP1;ratioP1;P2;durP2;ratioP2
8694;SDS011;65580;49.446;6.854;2022-11-27T00:01:36;44.40;;;14.88;;
8694;SDS011;65580;49.446;6.854;2022-11-27T00:06:41;47.72;;;13.45;;
8694;SDS011;65580;49.446;6.854;2022-11-27T00:11:45;44.20;;;14.20;;
8694;SDS011;65580;49.446;6.854;2022-11-27T00:16:50;39.78;;;11.80;;
8694;SDS011;65580;49.446;6.854;2022-11-27T00:21:54;40.75;;;12.18;;
8694;SDS011;65580;49.446;6.854;2022-11-27T00:26:58;38.25;;;12.05;;
8694;SDS011;65580;49.446;6.854;2022-11-27T00:32:00;32.40;;;11.40;;
8694;SDS011;65580;49.446;6.854;2022-11-27T00:42:30;41.47;;;12.55;;
8694;SDS011;65580;49.446;6.854;2022-11-27T00:47:33;37.70;;;11.48;;
8694;SDS011;65580;49.446;6.854;2022-11-27T00:52:36;39.13;;;12.15;;
8694;SDS011;65580;49.446;6.854;2022-11-27T00:57:38;45.42;;;12.98;;
8694;SDS011;65580;49.446;6.854;2022-11-27T01:02:40;40.22;;;10.98;;
8694;SDS011;65580;49.446;6.854;2022-11-27T01:07:44;50.50;;;13.20;;
8694;SDS011;65580;49.446;6.854;2022-11-27T01:12:49;34.72;;;11.68;;
8694;SDS011;65580;49.446;6.854;2022-11-27T01:17:51;36.40;;;10.65;;
8694;SDS011;65580;49.446;6.854;2022-11-27T01:22:54;59.78;;;12.50;;
8694;SDS011;65580;49.446;6.854;2022-11-27T01:27:56;36.35;;;11.23;;
8694;SDS011;65580;49.446;6.854;2022-11-27T01:33:00;34.67;;;10.27;;
8694;SDS011;65580;49.446;6.854;2022-11-27T01:38:04;31.13;;;10.95;;
8694;SDS011;65580;49.446;6.854;2022-11-27T01:43:07;43.17;;;12.48;;
8694;SDS011;65580;49.446;6.854;2022-11-27T01:48:12;34.75;;;11.13;;
8694;SDS011;65580;49.446;6.854;2022-11-27T01:53:18;44.28;;;12.45;;
8694;SDS011;65580;49.446;6.854;2022-11-27T01:58:21;35.20;;;10.32;;
8694;SDS011;65580;49.446;6.854;2022-11-27T02:03:26;44.55;;;11.63;;
8694;SDS011;65580;49.446;6.854;2022-11-27T02:08:32;46.30;;;12.43;;
8694;SDS011;65580;49.446;6.854;2022-11-27T02:13:36;39.17;;;11.15;;
8694;SDS011;65580;49.446;6.854;2022-11-27T02:18:41;45.05;;;12.32;;
8694;SDS011;65580;49.446;6.854;2022-11-27T02:29:33;52.88;;;13.60;;
8694;SDS011;65580;49.446;6.854;2022-11-27T02:34:41;56.22;;;14.07;;
8694;SDS011;65580;49.446;6.854;2022-11-27T02:39:50;42.97;;;11.32;;
8694;SDS011;65580;49.446;6.854;2022-11-27T02:45:00;36.08;;;11.95;;
8694;SDS011;65580;49.446;6.854;2022-11-27T02:50:06;52.30;;;14.90;;
8694;SDS011;65580;49.446;6.854;2022-11-27T02:55:13;51.55;;;14.10;;
8694;SDS011;65580;49.446;6.854;2022-11-27T03:05:24;40.85;;;12.00;;
8694;SDS011;65580;49.446;6.854;2022-11-27T03:10:31;49.92;;;14.27;;
8694;SDS011;65580;49.446;6.854;2022-11-27T03:15:40;54.92;;;15.02;;
8694;SDS011;65580;49.446;6.854;2022-11-27T03:20:48;41.30;;;13.85;;
8694;SDS011;65580;49.446;6.854;2022-11-27T03:25:55;43.00;;;14.30;;
8694;SDS011;65580;49.446;6.854;2022-11-27T03:31:00;69.85;;;17.25;;
8694;SDS011;65580;49.446;6.854;2022-11-27T03:36:22;43.55;;;13.02;;
8694;SDS011;65580;49.446;6.854;2022-11-27T03:40:26;41.95;;;14.27;;
8694;SDS011;65580;49.446;6.854;2022-11-27T03:44:31;39.40;;;13.07;;
8694;SDS011;65580;49.446;6.854;2022-11-27T03:48:41;37.50;;;11.75;;
8694;SDS011;65580;49.446;6.854;2022-11-27T03:52:50;42.00;;;14.35;;
8694;SDS011;65580;49.446;6.854;2022-11-27T03:56:57;37.97;;;13.40;;
8694;SDS011;65580;49.446;6.854;2022-11-27T04:01:03;37.78;;;12.98;;
8694;SDS011;65580;49.446;6.854;2022-11-27T04:05:08;40.40;;;14.30;;
8694;SDS011;65580;49.446;6.854;2022-11-27T04:09:14;40.45;;;12.90;;
8694;SDS011;65580;49.446;6.854;2022-11-27T04:13:18;31.20;;;11.98;;
8694;SDS011;65580;49.446;6.854;2022-11-27T04:17:21;34.08;;;11.85;;
8694;SDS011;65580;49.446;6.854;2022-11-27T04:21:25;32.28;;;11.45;;
8694;SDS011;65580;49.446;6.854;2022-11-27T04:25:30;29.77;;;11.52;;
8694;SDS011;65580;49.446;6.854;2022-11-27T04:29:34;38.30;;;10.65;;
8694;SDS011;65580;49.446;6.854;2022-11-27T04:33:37;27.17;;;9.77;;
8694;SDS011;65580;49.446;6.854;2022-11-27T04:37:39;33.50;;;11.90;;
8694;SDS011;65580;49.446;6.854;2022-11-27T04:41:44;30.80;;;12.82;;
8694;SDS011;65580;49.446;6.854;2022-11-27T04:49:49;21.73;;;8.55;;
8694;SDS011;65580;49.446;6.854;2022-11-27T04:53:53;28.70;;;10.07;;
8694;SDS011;65580;49.446;6.854;2022-11-27T04:57:59;21.40;;;9.27;;
8694;SDS011;65580;49.446;6.854;2022-11-27T05:02:05;31.60;;;11.13;;
8694;SDS011;65580;49.446;6.854;2022-11-27T05:06:08;29.08;;;10.23;;
8694;SDS011;65580;49.446;6.854;2022-11-27T05:10:11;27.05;;;10.93;;
8694;SDS011;65580;49.446;6.854;2022-11-27T05:18:41;20.83;;;8.95;;
8694;SDS011;65580;49.446;6.854;2022-11-27T05:22:47;23.58;;;9.63;;
8694;SDS011;65580;49.446;6.854;2022-11-27T05:26:50;22.35;;;8.77;;
8694;SDS011;65580;49.446;6.854;2022-11-27T05:30:54;27.15;;;9.15;;
8694;SDS011;65580;49.446;6.854;2022-11-27T05:34:58;21.17;;;9.07;;
8694;SDS011;65580;49.446;6.854;2022-11-27T05:39:02;19.17;;;8.68;;
8694;SDS011;65580;49.446;6.854;2022-11-27T05:43:05;19.83;;;7.70;;
8694;SDS011;65580;49.446;6.854;2022-11-27T05:47:11;18.25;;;8.25;;
8694;SDS011;65580;49.446;6.854;2022-11-27T05:51:13;23.27;;;9.50;;
8694;SDS011;65580;49.446;6.854;2022-11-27T05:55:17;20.77;;;8.55;;
8694;SDS011;65580;49.446;6.854;2022-11-27T05:59:20;25.02;;;9.02;;
8694;SDS011;65580;49.446;6.854;2022-11-27T06:03:30;28.60;;;10.02;;
8694;SDS011;65580;49.446;6.854;2022-11-27T06:07:33;25.52;;;10.52;;
8694;SDS011;65580;49.446;6.854;2022-11-27T06:11:35;28.33;;;11.50;;
8694;SDS011;65580;49.446;6.854;2022-11-27T06:15:38;23.70;;;7.80;;
8694;SDS011;65580;49.446;6.854;2022-11-27T06:19:44;21.70;;;8.35;;
8694;SDS011;65580;49.446;6.854;2022-11-27T06:23:54;23.95;;;8.65;;
8694;SDS011;65580;49.446;6.854;2022-11-27T06:27:57;29.52;;;11.00;;
8694;SDS011;65580;49.446;6.854;2022-11-27T06:32:00;26.05;;;10.10;;
8694;SDS011;65580;49.446;6.854;2022-11-27T06:36:04;21.00;;;8.80;;
8694;SDS011;65580;49.446;6.854;2022-11-27T06:40:08;23.77;;;9.20;;
8694;SDS011;65580;49.446;6.854;2022-11-27T06:44:11;25.08;;;9.68;;
8694;SDS011;65580;49.446;6.854;2022-11-27T06:48:14;25.88;;;9.82;;
8694;SDS011;65580;49.446;6.854;2022-11-27T06:52:18;24.80;;;9.93;;
8694;SDS011;65580;49.446;6.854;2022-11-27T06:56:23;23.27;;;9.48;;
8694;SDS011;65580;49.446;6.854;2022-11-27T07:00:27;26.73;;;9.55;;
8694;SDS011;65580;49.446;6.854;2022-11-27T07:04:32;23.08;;;8.52;;
8694;SDS011;65580;49.446;6.854;2022-11-27T07:08:40;25.13;;;9.75;;
8694;SDS011;65580;49.446;6.854;2022-11-27T07:12:42;25.13;;;9.02;;
8694;SDS011;65580;49.446;6.854;2022-11-27T07:16:44;22.85;;;9.07;;
8694;SDS011;65580;49.446;6.854;2022-11-27T07:20:49;23.42;;;9.20;;
8694;SDS011;65580;49.446;6.854;2022-11-27T07:24:55;22.13;;;8.13;;
8694;SDS011;65580;49.446;6.854;2022-11-27T07:28:59;23.92;;;8.93;;
8694;SDS011;65580;49.446;6.854;2022-11-27T07:33:02;21.20;;;8.85;;
8694;SDS011;65580;49.446;6.854;2022-11-27T07:37:12;22.70;;;8.77;;
8694;SDS011;65580;49.446;6.854;2022-11-27T07:41:16;22.50;;;9.35;;
8694;SDS011;65580;49.446;6.854;2022-11-27T07:45:19;22.98;;;9.25;;
8694;SDS011;65580;49.446;6.854;2022-11-27T07:49:22;25.60;;;10.30;;
8694;SDS011;65580;49.446;6.854;2022-11-27T07:53:35;23.92;;;9.82;;
8694;SDS011;65580;49.446;6.854;2022-11-27T07:57:40;28.42;;;10.00;;
8694;SDS011;65580;49.446;6.854;2022-11-27T08:01:43;24.88;;;9.73;;
8694;SDS011;65580;49.446;6.854;2022-11-27T08:05:46;30.95;;;10.63;;
8694;SDS011;65580;49.446;6.854;2022-11-27T08:09:57;24.50;;;8.35;;
8694;SDS011;65580;49.446;6.854;2022-11-27T08:14:01;24.27;;;9.75;;
8694;SDS011;65580;49.446;6.854;2022-11-27T08:18:04;23.83;;;9.45;;
8694;SDS011;65580;49.446;6.854;2022-11-27T08:22:09;23.00;;;9.43;;
8694;SDS011;65580;49.446;6.854;2022-11-27T08:26:15;24.45;;;10.13;;
8694;SDS011;65580;49.446;6.854;2022-11-27T08:30:19;20.08;;;9.15;;
8694;SDS011;65580;49.446;6.854;2022-11-27T08:34:22;25.50;;;9.07;;
8694;SDS011;65580;49.446;6.854;2022-11-27T08:38:25;21.58;;;8.43;;
8694;SDS011;65580;49.446;6.854;2022-11-27T08:42:28;23.55;;;9.57;;
8694;SDS011;65580;49.446;6.854;2022-11-27T08:50:36;22.85;;;9.27;;
8694;SDS011;65580;49.446;6.854;2022-11-27T08:54:39;23.13;;;8.90;;
8694;SDS011;65580;49.446;6.854;2022-11-27T08:58:42;25.02;;;9.90;;
8694;SDS011;65580;49.446;6.854;2022-11-27T09:02:45;21.45;;;8.90;;
8694;SDS011;65580;49.446;6.854;2022-11-27T09:06:49;26.17;;;9.88;;
8694;SDS011;65580;49.446;6.854;2022-11-27T09:10:52;25.35;;;10.73;;
8694;SDS011;65580;49.446;6.854;2022-11-27T09:14:57;22.25;;;8.50;;
8694;SDS011;65580;49.446;6.854;2022-11-27T09:19:01;24.98;;;10.65;;
8694;SDS011;65580;49.446;6.854;2022-11-27T09:23:03;25.42;;;10.23;;
8694;SDS011;65580;49.446;6.854;2022-11-27T09:27:07;26.23;;;9.05;;
8694;SDS011;65580;49.446;6.854;2022-11-27T09:31:13;23.17;;;9.65;;
8694;SDS011;65580;49.446;6.854;2022-11-27T09:35:20;24.35;;;9.95;;
8694;SDS011;65580;49.446;6.854;2022-11-27T09:39:27;23.63;;;10.18;;
8694;SDS011;65580;49.446;6.854;2022-11-27T09:43:33;24.50;;;9.43;;
8694;SDS011;65580;49.446;6.854;2022-11-27T09:47:44;21.75;;;9.10;;
8694;SDS011;65580;49.446;6.854;2022-11-27T09:51:55;24.38;;;9.43;;
8694;SDS011;65580;49.446;6.854;2022-11-27T09:56:03;22.88;;;9.82;;
8694;SDS011;65580;49.446;6.854;2022-11-27T10:00:11;24.08;;;8.48;;
8694;SDS011;65580;49.446;6.854;2022-11-27T10:04:16;23.30;;;9.43;;
8694;SDS011;65580;49.446;6.854;2022-11-27T10:08:24;23.98;;;9.30;;
8694;SDS011;65580;49.446;6.854;2022-11-27T10:12:33;23.20;;;9.48;;
8694;SDS011;65580;49.446;6.854;2022-11-27T10:16:39;22.05;;;9.43;;
8694;SDS011;65580;49.446;6.854;2022-11-27T10:20:46;24.15;;;9.35;;
8694;SDS011;65580;49.446;6.854;2022-11-27T10:29:26;21.70;;;8.98;;
8694;SDS011;65580;49.446;6.854;2022-11-27T10:33:49;21.20;;;9.35;;
8694;SDS011;65580;49.446;6.854;2022-11-27T10:37:53;21.88;;;8.75;;
8694;SDS011;65580;49.446;6.854;2022-11-27T10:46:36;24.35;;;9.63;;
8694;SDS011;65580;49.446;6.854;2022-11-27T10:50:40;24.30;;;8.95;;
8694;SDS011;65580;49.446;6.854;2022-11-27T10:54:42;19.02;;;8.23;;
8694;SDS011;65580;49.446;6.854;2022-11-27T10:58:50;23.02;;;9.05;;
8694;SDS011;65580;49.446;6.854;2022-11-27T11:03:15;20.77;;;7.70;;
8694;SDS011;65580;49.446;6.854;2022-11-27T11:11:30;21.85;;;8.50;;
8694;SDS011;65580;49.446;6.854;2022-11-27T11:15:32;21.58;;;9.35;;
8694;SDS011;65580;49.446;6.854;2022-11-27T11:19:39;20.63;;;8.82;;
8694;SDS011;65580;49.446;6.854;2022-11-27T11:23:43;20.80;;;9.70;;
8694;SDS011;65580;49.446;6.854;2022-11-27T11:27:53;23.13;;;9.73;;
8694;SDS011;65580;49.446;6.854;2022-11-27T11:36:20;27.15;;;10.88;;
8694;SDS011;65580;49.446;6.854;2022-11-27T11:40:24;34.30;;;14.27;;
8694;SDS011;65580;49.446;6.854;2022-11-27T11:44:35;21.02;;;8.82;;
8694;SDS011;65580;49.446;6.854;2022-11-27T11:48:39;19.30;;;8.35;;
8694;SDS011;65580;49.446;6.854;2022-11-27T11:52:45;21.42;;;9.68;;
8694;SDS011;65580;49.446;6.854;2022-11-27T11:56:55;21.00;;;8.85;;
8694;SDS011;65580;49.446;6.854;2022-11-27T12:01:06;22.42;;;9.70;;
8694;SDS011;65580;49.446;6.854;2022-11-27T12:05:23;18.98;;;7.93;;
8694;SDS011;65580;49.446;6.854;2022-11-27T12:09:35;31.83;;;11.23;;
8694;SDS011;65580;49.446;6.854;2022-11-27T12:13:53;27.63;;;9.15;;
8694;SDS011;65580;49.446;6.854;2022-11-27T12:18:07;19.35;;;9.07;;
8694;SDS011;65580;49.446;6.854;2022-11-27T12:22:32;21.50;;;10.20;;
8694;SDS011;65580;49.446;6.854;2022-11-27T12:26:47;19.80;;;8.55;;
8694;SDS011;65580;49.446;6.854;2022-11-27T12:31:02;18.40;;;8.70;;
8694;SDS011;65580;49.446;6.854;2022-11-27T12:35:22;20.80;;;8.75;;
8694;SDS011;65580;49.446;6.854;2022-11-27T12:39:45;20.45;;;9.10;;
8694;SDS011;65580;49.446;6.854;2022-11-27T12:43:57;19.65;;;8.95;;
8694;SDS011;65580;49.446;6.854;2022-11-27T12:48:01;22.27;;;9.02;;
8694;SDS011;65580;49.446;6.854;2022-11-27T12:52:09;27.38;;;9.82;;
8694;SDS011;65580;49.446;6.854;2022-11-27T12:56:19;22.25;;;8.77;;
8694;SDS011;65580;49.446;6.854;2022-11-27T13:00:27;20.02;;;8.43;;
8694;SDS011;65580;49.446;6.854;2022-11-27T13:04:33;22.27;;;9.18;;
8694;SDS011;65580;49.446;6.854;2022-11-27T13:08:42;18.38;;;8.57;;
8694;SDS011;65580;49.446;6.854;2022-11-27T13:12:49;19.52;;;9.15;;
8694;SDS011;65580;49.446;6.854;2022-11-27T13:16:59;25.23;;;9.90;;
8694;SDS011;65580;49.446;6.854;2022-11-27T13:21:05;16.73;;;7.15;;
8694;SDS011;65580;49.446;6.854;2022-11-27T13:25:10;19.63;;;8.35;;
8694;SDS011;65580;49.446;6.854;2022-11-27T13:29:16;15.00;;;7.50;;
8694;SDS011;65580;49.446;6.854;2022-11-27T13:33:28;17.45;;;7.53;;
8694;SDS011;65580;49.446;6.854;2022-11-27T13:37:37;16.40;;;7.50;;
8694;SDS011;65580;49.446;6.854;2022-11-27T13:41:41;14.45;;;6.43;;
8694;SDS011;65580;49.446;6.854;2022-11-27T13:45:46;16.25;;;6.85;;
8694;SDS011;65580;49.446;6.854;2022-11-27T13:54:53;13.13;;;6.70;;
8694;SDS011;65580;49.446;6.854;2022-11-27T13:58:56;14.00;;;6.35;;
8694;SDS011;65580;49.446;6.854;2022-11-27T14:03:00;15.30;;;6.82;;
8694;SDS011;65580;49.446;6.854;2022-11-27T14:12:02;16.42;;;6.75;;
8694;SDS011;65580;49.446;6.854;2022-11-27T14:16:18;14.30;;;6.78;;
8694;SDS011;65580;49.446;6.854;2022-11-27T14:20:26;16.08;;;7.32;;
8694;SDS011;65580;49.446;6.854;2022-11-27T14:24:35;11.32;;;6.00;;
8694;SDS011;65580;49.446;6.854;2022-11-27T14:28:41;16.80;;;7.32;;
8694;SDS011;65580;49.446;6.854;2022-11-27T14:32:47;14.25;;;7.25;;
8694;SDS011;65580;49.446;6.854;2022-11-27T14:36:51;13.48;;;6.85;;
8694;SDS011;65580;49.446;6.854;2022-11-27T14:41:05;14.77;;;6.70;;
8694;SDS011;65580;49.446;6.854;2022-11-27T14:45:12;14.65;;;7.72;;
8694;SDS011;65580;49.446;6.854;2022-11-27T14:49:17;14.40;;;6.45;;
8694;SDS011;65580;49.446;6.854;2022-11-27T14:53:23;13.43;;;5.97;;
8694;SDS011;65580;49.446;6.854;2022-11-27T14:57:30;13.32;;;6.65;;
8694;SDS011;65580;49.446;6.854;2022-11-27T15:01:35;14.80;;;6.20;;
8694;SDS011;65580;49.446;6.854;2022-11-27T15:05:48;13.82;;;6.10;;
8694;SDS011;65580;49.446;6.854;2022-11-27T15:13:57;13.00;;;5.88;;
8694;SDS011;65580;49.446;6.854;2022-11-27T15:18:04;15.40;;;6.70;;
8694;SDS011;65580;49.446;6.854;2022-11-27T15:22:34;14.30;;;6.47;;
8694;SDS011;65580;49.446;6.854;2022-11-27T15:26:38;14.00;;;6.88;;
8694;SDS011;65580;49.446;6.854;2022-11-27T15:30:46;14.48;;;6.18;;
8694;SDS011;65580;49.446;6.854;2022-11-27T15:35:10;12.15;;;6.10;;
8694;SDS011;65580;49.446;6.854;2022-11-27T15:39:16;13.88;;;6.78;;
8694;SDS011;65580;49.446;6.854;2022-11-27T15:43:23;12.23;;;6.50;;
8694;SDS011;65580;49.446;6.854;2022-11-27T15:47:26;14.98;;;7.00;;
8694;SDS011;65580;49.446;6.854;2022-11-27T15:51:33;14.27;;;6.40;;
8694;SDS011;65580;49.446;6.854;2022-11-27T15:55:35;12.80;;;5.70;;
8694;SDS011;65580;49.446;6.854;2022-11-27T15:59:49;14.02;;;6.38;;
8694;SDS011;65580;49.446;6.854;2022-11-27T16:03:53;16.23;;;7.70;;
8694;SDS011;65580;49.446;6.854;2022-11-27T16:07:57;16.65;;;6.85;;
8694;SDS011;65580;49.446;6.854;2022-11-27T16:12:00;18.42;;;8.27;;
8694;SDS011;65580;49.446;6.854;2022-11-27T16:16:02;15.93;;;7.15;;
8694;SDS011;65580;49.446;6.854;2022-11-27T16:20:11;17.27;;;7.97;;
8694;SDS011;65580;49.446;6.854;2022-11-27T16:24:16;15.15;;;7.28;;
8694;SDS011;65580;49.446;6.854;2022-11-27T16:36:41;13.90;;;6.82;;
8694;SDS011;65580;49.446;6.854;2022-11-27T16:40:45;14.05;;;7.07;;
8694;SDS011;65580;49.446;6.854;2022-11-27T16:44:48;13.10;;;7.00;;
8694;SDS011;65580;49.446;6.854;2022-11-27T16:48:51;12.05;;;5.88;;
8694;SDS011;65580;49.446;6.854;2022-11-27T16:52:59;13.15;;;6.35;;
8694;SDS011;65580;49.446;6.854;2022-11-27T16:57:03;15.35;;;6.85;;
8694;SDS011;65580;49.446;6.854;2022-11-27T17:01:06;15.65;;;6.90;;
8694;SDS011;65580;49.446;6.854;2022-11-27T17:05:11;10.98;;;5.57;;
8694;SDS011;65580;49.446;6.854;2022-11-27T17:09:14;15.23;;;6.07;;
8694;SDS011;65580;49.446;6.854;2022-11-27T17:13:21;11.45;;;5.95;;
8694;SDS011;65580;49.446;6.854;2022-11-27T17:17:24;16.27;;;5.68;;
8694;SDS011;65580;49.446;6.854;2022-11-27T17:21:26;10.93;;;5.78;;
8694;SDS011;65580;49.446;6.854;2022-11-27T17:25:30;11.70;;;5.75;;
8694;SDS011;65580;49.446;6.854;2022-11-27T17:29:34;13.70;;;6.70;;
8694;SDS011;65580;49.446;6.854;2022-11-27T17:33:40;14.48;;;6.80;;
8694;SDS011;65580;49.446;6.854;2022-11-27T17:41:50;14.85;;;5.80;;
8694;SDS011;65580;49.446;6.854;2022-11-27T17:45:55;12.95;;;5.85;;
8694;SDS011;65580;49.446;6.854;2022-11-27T17:50:02;14.43;;;6.68;;
8694;SDS011;65580;49.446;6.854;2022-11-27T17:54:05;11.05;;;5.85;;
8694;SDS011;65580;49.446;6.854;2022-11-27T17:58:08;12.85;;;6.38;;
8694;SDS011;65580;49.446;6.854;2022-11-27T18:02:12;14.32;;;6.00;;
8694;SDS011;65580;49.446;6.854;2022-11-27T18:06:15;13.80;;;6.03;;
8694;SDS011;65580;49.446;6.854;2022-11-27T18:10:19;12.27;;;6.43;;
8694;SDS011;65580;49.446;6.854;2022-11-27T18:14:34;13.27;;;6.57;;
8694;SDS011;65580;49.446;6.854;2022-11-27T18:18:39;11.02;;;5.60;;
8694;SDS011;65580;49.446;6.854;2022-11-27T18:22:44;17.35;;;5.93;;
8694;SDS011;65580;49.446;6.854;2022-11-27T18:26:49;15.32;;;6.90;;
8694;SDS011;65580;49.446;6.854;2022-11-27T18:30:53;11.55;;;5.82;;
8694;SDS011;65580;49.446;6.854;2022-11-27T18:34:59;19.67;;;8.43;;
8694;SDS011;65580;49.446;6.854;2022-11-27T18:39:02;12.80;;;6.22;;
8694;SDS011;65580;49.446;6.854;2022-11-27T18:43:05;15.25;;;6.93;;
8694;SDS011;65580;49.446;6.854;2022-11-27T18:47:11;17.10;;;6.57;;
8694;SDS011;65580;49.446;6.854;2022-11-27T18:51:28;16.52;;;7.97;;
8694;SDS011;65580;49.446;6.854;2022-11-27T18:55:32;15.10;;;7.82;;
8694;SDS011;65580;49.446;6.854;2022-11-27T18:59:35;15.15;;;7.38;;
8694;SDS011;65580;49.446;6.854;2022-11-27T19:03:41;15.52;;;7.55;;
8694;SDS011;65580;49.446;6.854;2022-11-27T19:07:49;14.98;;;7.60;;
8694;SDS011;65580;49.446;6.854;2022-11-27T19:11:51;12.80;;;7.10;;
8694;SDS011;65580;49.446;6.854;2022-11-27T19:15:53;14.40;;;6.72;;
8694;SDS011;65580;49.446;6.854;2022-11-27T19:24:39;13.38;;;6.80;;
8694;SDS011;65580;49.446;6.854;2022-11-27T19:28:47;13.02;;;6.97;;
8694;SDS011;65580;49.446;6.854;2022-11-27T19:32:49;18.55;;;8.15;;
8694;SDS011;65580;49.446;6.854;2022-11-27T19:41:01;16.40;;;8.02;;
8694;SDS011;65580;49.446;6.854;2022-11-27T19:45:05;18.77;;;8.80;;
8694;SDS011;65580;49.446;6.854;2022-11-27T19:49:11;15.20;;;8.02;;
8694;SDS011;65580;49.446;6.854;2022-11-27T19:53:16;14.80;;;7.53;;
8694;SDS011;65580;49.446;6.854;2022-11-27T19:57:19;15.02;;;6.50;;
8694;SDS011;65580;49.446;6.854;2022-11-27T20:01:31;17.30;;;7.50;;
8694;SDS011;65580;49.446;6.854;2022-11-27T20:05:40;15.60;;;7.40;;
8694;SDS011;65580;49.446;6.854;2022-11-27T20:10:17;13.48;;;6.68;;
8694;SDS011;65580;49.446;6.854;2022-11-27T20:18:42;18.40;;;8.18;;
8694;SDS011;65580;49.446;6.854;2022-11-27T20:22:50;19.83;;;8.10;;
8694;SDS011;65580;49.446;6.854;2022-11-27T20:26:53;16.85;;;7.70;;
8694;SDS011;65580;49.446;6.854;2022-11-27T20:30:58;15.55;;;7.70;;
8694;SDS011;65580;49.446;6.854;2022-11-27T20:35:05;13.88;;;7.35;;
8694;SDS011;65580;49.446;6.854;2022-11-27T20:39:08;16.45;;;7.63;;
8694;SDS011;65580;49.446;6.854;2022-11-27T20:43:11;17.90;;;7.97;;
8694;SDS011;65580;49.446;6.854;2022-11-27T20:47:29;19.30;;;9.50;;
8694;SDS011;65580;49.446;6.854;2022-11-27T20:51:34;23.23;;;10.93;;
8694;SDS011;65580;49.446;6.854;2022-11-27T20:55:36;21.35;;;9.55;;
8694;SDS011;65580;49.446;6.854;2022-11-27T20:59:41;20.80;;;10.82;;
8694;SDS011;65580;49.446;6.854;2022-11-27T21:03:46;17.85;;;9.27;;
8694;SDS011;65580;49.446;6.854;2022-11-27T21:07:51;18.25;;;10.48;;
8694;SDS011;65580;49.446;6.854;2022-11-27T21:11:56;20.77;;;9.82;;
8694;SDS011;65580;49.446;6.854;2022-11-27T21:15:59;28.27;;;12.10;;
8694;SDS011;65580;49.446;6.854;2022-11-27T21:20:03;23.15;;;11.07;;
8694;SDS011;65580;49.446;6.854;2022-11-27T21:24:07;17.65;;;9.27;;
8694;SDS011;65580;49.446;6.854;2022-11-27T21:28:10;21.90;;;11.02;;
8694;SDS011;65580;49.446;6.854;2022-11-27T21:32:12;22.17;;;11.50;;
8694;SDS011;65580;49.446;6.854;2022-11-27T21:36:19;20.67;;;11.35;;
8694;SDS011;65580;49.446;6.854;2022-11-27T21:40:24;30.55;;;13.10;;
8694;SDS011;65580;49.446;6.854;2022-11-27T21:44:26;18.90;;;11.18;;
8694;SDS011;65580;49.446;6.854;2022-11-27T21:48:29;22.15;;;11.82;;
8694;SDS011;65580;49.446;6.854;2022-11-27T21:52:33;22.88;;;11.63;;
8694;SDS011;65580;49.446;6.854;2022-11-27T21:56:36;22.70;;;11.38;;
8694;SDS011;65580;49.446;6.854;2022-11-27T22:00:39;32.40;;;14.48;;
8694;SDS011;65580;49.446;6.854;2022-11-27T22:04:41;22.42;;;11.57;;
8694;SDS011;65580;49.446;6.854;2022-11-27T22:08:46;39.05;;;16.70;;
8694;SDS011;65580;49.446;6.854;2022-11-27T22:12:49;27.98;;;14.50;;
8694;SDS011;65580;49.446;6.854;2022-11-27T22:16:52;24.45;;;13.43;;
8694;SDS011;65580;49.446;6.854;2022-11-27T22:20:55;50.05;;;22.23;;
8694;SDS011;65580;49.446;6.854;2022-11-27T22:25:13;49.60;;;20.40;;
8694;SDS011;65580;49.446;6.854;2022-11-27T22:33:26;30.92;;;15.00;;
8694;SDS011;65580;49.446;6.854;2022-11-27T22:37:42;28.52;;;14.82;;
8694;SDS011;65580;49.446;6.854;2022-11-27T22:41:46;24.88;;;14.30;;
8694;SDS011;65580;49.446;6.854;2022-11-27T22:45:49;46.45;;;20.58;;
8694;SDS011;65580;49.446;6.854;2022-11-27T22:49:52;29.75;;;15.20;;
8694;SDS011;65580;49.446;6.854;2022-11-27T22:53:55;32.63;;;15.15;;
8694;SDS011;65580;49.446;6.854;2022-11-27T22:57:59;25.17;;;13.05;;
8694;SDS011;65580;49.446;6.854;2022-11-27T23:02:02;27.55;;;14.50;;
8694;SDS011;65580;49.446;6.854;2022-11-27T23:06:04;30.92;;;14.65;;
8694;SDS011;65580;49.446;6.854;2022-11-27T23:10:11;25.13;;;13.13;;
8694;SDS011;65580;49.446;6.854;2022-11-27T23:14:16;30.90;;;13.93;;
8694;SDS011;65580;49.446;6.854;2022-11-27T23:18:21;29.35;;;13.52;;
8694;SDS011;65580;49.446;6.854;2022-11-27T23:22:24;47.33;;;20.42;;
8694;SDS011;65580;49.446;6.854;2022-11-27T23:26:27;27.38;;;14.45;;
8694;SDS011;65580;49.446;6.854;2022-11-27T23:30:32;25.80;;;13.10;;
8694;SDS011;65580;49.446;6.854;2022-11-27T23:34:37;29.58;;;14.82;;
8694;SDS011;65580;49.446;6.854;2022-11-27T23:38:39;30.73;;;14.23;;
8694;SDS011;65580;49.446;6.854;2022-11-27T23:42:42;35.80;;;17.60;;
8694;SDS011;65580;49.446;6.854;2022-11-27T23:46:48;33.63;;;16.00;;
8694;SDS011;65580;49.446;6.854;2022-11-27T23:50:50;45.45;;;18.30;;
8694;SDS011;65580;49.446;6.854;2022-11-27T23:54:52;34.67;;;16.83;;
8694;SDS011;65580;49.446;6.854;2022-11-27T23:59:02;32.72;;;14.23;;
